createdAt,value
2018-12-11T00:00:47.872Z,-0.4
2018-12-11T00:01:38.155Z,-0.4
2018-12-11T00:02:27.398Z,-0.4
2018-12-11T00:03:18.581Z,-0.4
2018-12-11T00:04:08.352Z,-0.4
2018-12-11T00:04:58.386Z,-0.4
2018-12-11T00:05:48.449Z,-0.4
2018-12-11T00:06:38.509Z,-0.3
2018-12-11T00:24:53.613Z,-0.1
2018-12-11T00:25:42.828Z,0
2018-12-11T00:26:33.163Z,0
2018-12-11T00:27:23.465Z,0
2018-12-11T00:28:19.231Z,0
2018-12-11T00:29:09.377Z,0
2018-12-11T00:30:00.600Z,0.1
2018-12-11T00:30:50.122Z,0.1
2018-12-11T00:31:54.400Z,0.1
2018-12-11T04:54:07.949Z,-1.1
2018-12-11T04:54:56.510Z,-1.1
2018-12-11T04:55:46.318Z,-1.2
2018-12-11T04:56:36.320Z,-1.2
2018-12-11T04:57:26.093Z,-1.2
2018-12-11T04:58:16.161Z,-1.2
2018-12-11T04:59:06.738Z,-1.2
2018-12-11T04:59:56.555Z,-1.2
2018-12-11T05:00:46.566Z,-1.2
2018-12-11T05:01:36.653Z,-1.3
2018-12-11T05:02:26.707Z,-1.3
2018-12-11T05:03:16.488Z,-1.3
2018-12-11T05:04:06.537Z,-1.3
2018-12-11T05:04:56.607Z,-1.3
2018-12-11T05:05:46.385Z,-1.3
2018-12-11T05:06:36.750Z,-1.3
2018-12-11T05:07:26.505Z,-1.3
2018-12-11T05:08:16.881Z,-1.3
2018-12-11T05:09:06.872Z,-1.3
2018-12-11T05:09:57.177Z,-1.3
2018-12-11T05:10:47.283Z,-1.3
2018-12-11T05:11:37.581Z,-1.3
2018-12-11T05:12:27.377Z,-1.3
2018-12-11T05:13:17.174Z,-1.3
2018-12-11T05:14:06.946Z,-1.3
2018-12-11T05:14:56.537Z,-1.3
2018-12-11T05:15:47.618Z,-1.3
2018-12-11T05:16:37.447Z,-1.3
2018-12-11T05:17:26.691Z,-1.3
2018-12-11T05:18:17.308Z,-1.3
2018-12-11T05:19:07.093Z,-1.3
2018-12-11T05:19:57.146Z,-1.3
2018-12-11T05:20:47.485Z,-1.3
2018-12-11T05:21:38.011Z,-1.3
2018-12-11T05:22:27.313Z,-1.3
2018-12-11T05:23:17.648Z,-1.3
2018-12-11T05:24:07.441Z,-1.3
2018-12-11T05:24:57.754Z,-1.3
2018-12-11T05:25:47.518Z,-1.3
2018-12-11T05:26:37.882Z,-1.3
2018-12-11T05:27:27.945Z,-1.3
2018-12-11T05:28:17.713Z,-1.3
2018-12-11T05:29:08.594Z,-1.3
2018-12-11T05:29:57.831Z,-1.3
2018-12-11T05:30:48.180Z,-1.3
2018-12-11T05:31:38.430Z,-1.3
2018-12-11T05:32:28.008Z,-1.3
2018-12-11T05:33:18.596Z,-1.3
2018-12-11T05:34:09.901Z,-1.3
2018-12-11T05:34:58.173Z,-1.3
2018-12-11T05:35:47.958Z,-1.3
2018-12-11T05:36:38.811Z,-1.3
2018-12-11T05:37:29.096Z,-1.3
2018-12-11T05:38:18.887Z,-1.3
2018-12-11T05:39:08.938Z,-1.3
2018-12-11T05:39:58.708Z,-1.3
2018-12-11T05:40:49.332Z,-1.3
2018-12-11T05:41:39.650Z,-1.3
2018-12-11T05:42:28.682Z,-1.3
2018-12-11T05:43:18.950Z,-1.3
2018-12-11T05:44:09.562Z,-1.3
2018-12-11T05:44:59.922Z,-1.3
2018-12-11T05:45:49.393Z,-1.3
2018-12-11T05:46:39.495Z,-1.3
2018-12-11T05:47:29.779Z,-1.3
2018-12-11T05:48:19.847Z,-1.3
2018-12-11T05:49:09.895Z,-1.2
2018-12-11T05:49:59.944Z,-1.3
2018-12-11T05:50:49.727Z,-1.3
2018-12-11T05:51:40.114Z,-1.3
2018-12-11T05:52:30.127Z,-1.3
2018-12-11T05:53:20.195Z,-1.3
2018-12-11T05:54:10.239Z,-1.3
2018-12-11T05:54:59.814Z,-1.3
2018-12-11T05:55:50.079Z,-1.2
2018-12-11T05:56:40.149Z,-1.2
2018-12-11T05:57:29.993Z,-1.2
2018-12-11T05:58:20.528Z,-1.2
2018-12-11T05:59:10.301Z,-1.2
2018-12-11T06:00:00.636Z,-1.2
2018-12-11T06:00:50.987Z,-1.2
2018-12-11T06:01:41.003Z,-1.2
2018-12-11T06:02:30.551Z,-1.1
2018-12-11T06:03:20.871Z,-1.1
2018-12-11T06:04:10.954Z,-1.1
2018-12-11T06:05:00.982Z,-1.1
2018-12-11T06:05:51.588Z,-1.1
2018-12-11T06:06:40.592Z,-1.1
2018-12-11T06:07:31.140Z,-1.1
2018-12-11T06:08:20.718Z,-1
2018-12-11T06:09:10.503Z,-1
2018-12-11T06:10:00.839Z,-1
2018-12-11T06:10:51.145Z,-1
2018-12-11T06:11:40.693Z,-1
2018-12-11T06:14:10.853Z,-0.9
2018-12-11T06:15:01.176Z,-0.9
2018-12-11T06:15:52.018Z,-0.8
2018-12-11T06:16:41.562Z,-0.8
2018-12-11T06:17:31.830Z,-0.8
2018-12-11T06:18:21.605Z,-0.7
2018-12-11T06:19:11.935Z,-0.6
2018-12-11T06:20:02.000Z,-0.6
2018-12-11T06:20:51.783Z,-0.4
2018-12-11T06:21:42.362Z,-0.3
2018-12-11T06:22:32.188Z,-0.1
2018-12-11T06:23:22.237Z,0.1
2018-12-11T06:24:12.014Z,0.5
2018-12-11T06:25:03.064Z,0.9
2018-12-11T06:25:52.396Z,1.4
2018-12-11T06:26:42.704Z,2
2018-12-11T06:27:32.514Z,2.6
2018-12-11T06:28:22.569Z,3.2
2018-12-11T06:29:12.623Z,3.8
2018-12-11T06:30:02.769Z,4.3
2018-12-11T06:30:52.464Z,4.9
2018-12-11T06:31:42.791Z,5.4
2018-12-11T06:32:32.850Z,6
2018-12-11T06:33:22.938Z,6.5
2018-12-11T06:34:12.968Z,7.1
2018-12-11T06:35:02.837Z,7.6
2018-12-11T06:35:53.073Z,8.1
2018-12-11T06:36:43.128Z,8.7
2018-12-11T06:37:33.197Z,9.2
2018-12-11T06:38:22.970Z,9.8
2018-12-11T06:39:13.023Z,10.4
2018-12-11T06:40:03.365Z,10.9
2018-12-11T06:40:53.423Z,11.5
2018-12-11T06:41:43.477Z,12
2018-12-11T06:42:33.562Z,12.5
2018-12-11T06:43:23.037Z,13.1
2018-12-11T06:44:13.720Z,13.5
2018-12-11T06:45:03.490Z,14
2018-12-11T06:45:53.486Z,14.4
2018-12-11T06:46:43.824Z,14.9
2018-12-11T06:47:34.124Z,15.4
2018-12-11T06:48:23.927Z,15.8
2018-12-11T06:49:13.414Z,16.3
2018-12-11T06:50:04.047Z,16.8
2018-12-11T06:50:53.539Z,17.2
2018-12-11T06:51:44.164Z,17.7
2018-12-11T06:52:34.459Z,18.2
2018-12-11T06:53:24.272Z,18.6
2018-12-11T06:54:14.332Z,19.1
2018-12-11T06:55:04.381Z,19.6
2018-12-11T06:55:53.881Z,20.1
2018-12-11T06:56:44.556Z,20.6
2018-12-11T06:58:24.601Z,21.5
2018-12-11T06:59:14.446Z,21.9
2018-12-11T07:00:04.699Z,22.3
2018-12-11T07:00:54.830Z,22.7
2018-12-11T07:01:44.884Z,23
2018-12-11T07:02:35.197Z,23.4
2018-12-11T07:03:24.724Z,23.9
2018-12-11T07:04:14.766Z,24.4
2018-12-11T07:05:05.068Z,25
2018-12-11T07:05:55.214Z,25.5
2018-12-11T07:06:45.238Z,26
2018-12-11T07:07:35.016Z,26.6
2018-12-11T07:08:25.297Z,27.1
2018-12-11T07:09:15.070Z,27.5
2018-12-11T07:10:05.445Z,27.7
2018-12-11T07:10:55.488Z,27.7
2018-12-11T07:11:45.358Z,27.8
2018-12-11T07:12:35.597Z,27.9
2018-12-11T07:13:25.362Z,28.1
2018-12-11T07:14:15.420Z,28.3
2018-12-11T07:15:05.205Z,28.6
2018-12-11T07:15:55.255Z,28.9
2018-12-11T07:16:45.752Z,29.3
2018-12-11T07:17:35.652Z,29.8
2018-12-11T07:18:28.813Z,30.2
2018-12-11T07:19:15.762Z,30.6
2018-12-11T07:20:05.547Z,31.1
2018-12-11T07:20:55.912Z,31.6
2018-12-11T07:21:45.934Z,31.9
2018-12-11T07:22:36.249Z,32.3
2018-12-11T07:23:25.770Z,32.5
2018-12-11T07:24:16.394Z,32.6
2018-12-11T07:25:06.441Z,32.8
2018-12-11T07:25:55.949Z,33.1
2018-12-11T07:26:46.284Z,33.4
2018-12-11T07:27:36.613Z,33.9
2018-12-11T07:28:26.368Z,34.3
2018-12-11T07:29:16.706Z,34.7
2018-12-11T07:30:06.783Z,35.2
2018-12-11T07:30:56.839Z,35.6
2018-12-11T07:31:46.903Z,36.1
2018-12-11T07:32:36.973Z,36.5
2018-12-11T07:33:27.254Z,37
2018-12-11T07:34:16.048Z,37.5
2018-12-11T07:35:07.183Z,38
2018-12-11T07:35:56.923Z,38.4
2018-12-11T07:36:47.240Z,38.8
2018-12-11T07:37:37.300Z,39.3
2018-12-11T07:38:27.080Z,39.8
2018-12-11T07:39:17.390Z,40.3
2018-12-11T07:40:07.480Z,40.8
2018-12-11T07:40:56.782Z,41.1
2018-12-11T07:41:47.305Z,41.6
2018-12-11T07:42:37.640Z,42
2018-12-11T07:43:27.420Z,42.5
2018-12-11T07:44:17.819Z,43
2018-12-11T07:45:07.817Z,43.5
2018-12-11T07:45:57.859Z,43.9
2018-12-11T07:46:47.646Z,44.3
2018-12-11T07:47:37.717Z,44.6
2018-12-11T07:48:27.769Z,45.1
2018-12-11T07:49:17.832Z,45.6
2018-12-11T07:50:07.589Z,45.9
2018-12-11T07:50:58.204Z,46.4
2018-12-11T07:51:48.269Z,46.8
2018-12-11T07:52:38.323Z,47.1
2018-12-11T07:53:28.114Z,47.5
2018-12-11T07:54:18.162Z,47.9
2018-12-11T07:55:08.514Z,48.2
2018-12-11T07:56:02.473Z,48.5
2018-12-11T07:56:48.336Z,49.1
2018-12-11T07:57:38.116Z,49.4
2018-12-11T07:58:28.169Z,49.8
2018-12-11T07:59:18.773Z,50.1
2018-12-11T08:00:08.655Z,50.5
2018-12-11T08:00:58.901Z,50.8
2018-12-11T08:01:48.963Z,51.1
2018-12-11T08:02:39.013Z,51.4
2018-12-11T08:03:29.078Z,51.8
2018-12-11T08:04:18.858Z,52.1
2018-12-11T08:05:58.683Z,52.5
2018-12-11T08:06:49.048Z,52.7
2018-12-11T08:07:38.821Z,52.8
2018-12-11T08:08:29.418Z,52.9
2018-12-11T08:09:19.480Z,53.1
2018-12-11T08:10:09.535Z,53.2
2018-12-11T08:10:59.585Z,53.3
2018-12-11T08:11:49.653Z,53.3
2018-12-11T08:12:39.448Z,53.4
2018-12-11T08:13:29.206Z,53.6
2018-12-11T08:14:19.831Z,53.6
2018-12-11T08:15:11.343Z,53.6
2018-12-11T08:15:59.945Z,53.8
2018-12-11T08:16:49.991Z,54
2018-12-11T08:17:39.777Z,54.4
2018-12-11T08:18:30.162Z,54.6
2018-12-11T08:19:20.165Z,54.8
2018-12-11T08:20:10.238Z,55.2
2018-12-11T08:21:00.305Z,55.6
2018-12-11T08:21:50.337Z,56
2018-12-11T08:22:40.397Z,56.4
2018-12-11T08:23:30.182Z,56.7
2018-12-11T08:24:20.487Z,56.9
2018-12-11T08:25:10.619Z,57.2
2018-12-11T08:26:00.354Z,57.4
2018-12-11T08:26:50.414Z,57.9
2018-12-11T08:27:40.469Z,58.3
2018-12-11T08:28:30.242Z,58.9
2018-12-11T08:29:20.581Z,59.1
2018-12-11T08:30:10.893Z,59.5
2018-12-11T08:31:00.702Z,60
2018-12-11T08:31:50.746Z,60.4
2018-12-11T08:32:41.096Z,60.7
2018-12-11T08:33:31.143Z,60.9
2018-12-11T08:34:20.459Z,61.3
2018-12-11T08:35:11.506Z,61.7
2018-12-11T08:36:01.559Z,61.9
2018-12-11T08:36:51.424Z,61.7
2018-12-11T08:37:40.874Z,61.6
2018-12-11T08:38:31.501Z,61.7
2018-12-11T08:39:21.336Z,61.8
2018-12-11T08:40:11.331Z,62.1
2018-12-11T08:41:01.961Z,62.2
2018-12-11T08:41:51.438Z,62.4
2018-12-11T08:42:41.496Z,62.8
2018-12-11T08:43:31.615Z,63.1
2018-12-11T08:44:21.620Z,63.3
2018-12-11T08:45:11.665Z,63.6
2018-12-11T08:46:02.011Z,63.8
2018-12-11T08:46:51.806Z,64.2
2018-12-11T08:47:42.121Z,64.2
2018-12-11T08:48:32.188Z,63.7
2018-12-11T08:49:22.243Z,63.3
2018-12-11T08:50:11.805Z,63.1
2018-12-11T08:51:02.083Z,63
2018-12-11T08:51:52.488Z,62.9
2018-12-11T08:52:42.191Z,62.7
2018-12-11T09:08:31.563Z,66.8
2018-12-11T09:09:21.530Z,67.4
2018-12-11T09:10:12.420Z,68.2
2018-12-11T09:11:01.509Z,69.3
2018-12-11T09:11:51.227Z,70.7
2018-12-11T09:12:41.260Z,68.8
2018-12-11T09:14:22.078Z,53.8
2018-12-11T09:15:11.917Z,48.7
2018-12-11T09:16:01.969Z,45.1
2018-12-11T09:16:51.826Z,43.2
2018-12-11T09:17:56.768Z,42
2018-12-11T09:18:32.363Z,42
2018-12-11T09:19:21.711Z,42.1
2018-12-11T09:20:12.047Z,42.3
2018-12-11T09:21:01.825Z,42.7
2018-12-11T09:21:52.164Z,43
2018-12-11T09:22:41.664Z,43.6
2018-12-11T09:23:46.657Z,43.9
2018-12-11T09:24:22.361Z,43.9
2018-12-11T09:25:26.984Z,43.8
2018-12-11T09:26:16.836Z,43.6
2018-12-11T09:26:52.516Z,43.4
2018-12-11T09:27:42.499Z,43.2
2018-12-11T09:28:32.378Z,42.8
2018-12-11T14:07:24.364Z,27.6
2018-12-11T14:08:14.009Z,27.4
2018-12-11T14:09:03.899Z,27.1
2018-12-11T14:09:54.422Z,26.8
2018-12-11T14:10:43.879Z,26.5
2018-12-11T14:11:33.941Z,26.3
2018-12-11T14:12:24.250Z,26.1
2018-12-11T14:13:14.329Z,25.8
2018-12-11T14:14:04.109Z,25.5
2018-12-11T14:14:54.151Z,25.4
2018-12-11T14:15:43.941Z,25.2
2018-12-11T14:16:34.564Z,24.9
2018-12-11T14:17:24.649Z,24.8
2018-12-11T14:18:14.748Z,24.5
2018-12-11T14:19:04.711Z,24.3
2018-12-11T14:19:54.513Z,24
2018-12-11T14:20:44.841Z,23.7
2018-12-11T14:21:34.638Z,23.5
2018-12-11T14:22:25.221Z,23.3
2018-12-11T14:23:15.023Z,22.9
2018-12-11T14:24:04.806Z,22.6
2018-12-11T14:24:55.133Z,22.4
2018-12-11T14:25:44.911Z,22.1
2018-12-11T14:26:35.255Z,21.8
2018-12-11T14:27:24.766Z,21.6
2018-12-11T14:28:15.370Z,21.3
2018-12-11T14:29:05.483Z,21
2018-12-11T14:29:55.490Z,20.7
2018-12-11T14:30:45.638Z,20.4
2018-12-11T14:31:35.051Z,20.1
2018-12-11T14:32:25.112Z,19.9
2018-12-11T14:33:15.700Z,19.6
2018-12-11T14:34:05.313Z,19.3
2018-12-11T14:34:55.362Z,19
2018-12-11T14:36:35.473Z,18.4
2018-12-11T14:37:25.535Z,18.1
2018-12-11T14:38:15.325Z,17.8
2018-12-11T14:39:05.377Z,17.5
2018-12-11T14:39:55.704Z,17.2
2018-12-11T14:40:45.779Z,16.9
2018-12-11T14:41:35.836Z,16.6
2018-12-11T14:42:26.366Z,16.3
2018-12-11T14:43:16.002Z,16
2018-12-11T14:44:06.004Z,15.7
2018-12-11T14:44:56.265Z,15.4
2018-12-11T14:45:46.314Z,15.2
2018-12-11T14:46:35.914Z,14.9
2018-12-11T14:47:26.165Z,14.6
2018-12-11T14:48:16.772Z,14.4
2018-12-11T14:49:06.289Z,14.1
2018-12-11T14:49:56.606Z,13.8
2018-12-11T14:50:46.726Z,13.6
2018-12-11T14:51:36.453Z,13.3
2018-12-11T14:52:26.793Z,13
2018-12-11T14:53:17.196Z,12.8
2018-12-11T14:54:07.246Z,12.5
2018-12-11T14:54:56.954Z,12.2
2018-12-11T14:55:47.286Z,11.9
2018-12-11T14:56:36.795Z,11.7
2018-12-11T14:57:33.577Z,11.4
2018-12-11T14:58:17.188Z,11.1
2018-12-11T14:59:06.963Z,10.9
2018-12-11T14:59:57.586Z,10.6
2018-12-11T15:00:46.884Z,10.4
2018-12-11T15:01:37.693Z,10.1
2018-12-11T15:02:27.761Z,9.8
2018-12-11T15:03:17.533Z,9.6
2018-12-11T15:04:07.586Z,9.3
2018-12-11T15:04:57.398Z,9.1
2018-12-11T15:05:47.995Z,8.8
2018-12-11T15:06:38.046Z,8.5
2018-12-11T15:07:27.835Z,8.3
2018-12-11T15:08:17.878Z,8
2018-12-11T15:09:07.948Z,7.7
2018-12-11T15:09:58.005Z,7.5
2018-12-11T15:10:48.080Z,7.3
2018-12-11T15:11:38.398Z,7.1
2018-12-11T15:12:28.462Z,6.8
2018-12-11T15:13:18.233Z,6.6
2018-12-11T15:14:08.548Z,6.4
2018-12-11T15:14:58.631Z,6.3
2018-12-11T15:15:48.690Z,6.1
2018-12-11T15:16:38.987Z,5.9
2018-12-11T15:17:28.258Z,5.8
2018-12-11T15:18:18.862Z,5.6
2018-12-11T15:19:08.627Z,5.4
2018-12-11T15:19:58.972Z,5.3
2018-12-11T15:20:48.203Z,5.1
2018-12-11T15:21:39.142Z,5
2018-12-11T15:22:29.143Z,4.9
2018-12-11T15:23:19.215Z,4.8
2018-12-11T15:24:09.314Z,4.6
2018-12-11T15:24:59.327Z,4.5
2018-12-11T15:25:49.385Z,4.4
2018-12-11T15:26:39.441Z,4.3
2018-12-11T15:27:28.941Z,4.1
2018-12-11T15:28:19.006Z,4.1
2018-12-11T15:29:09.617Z,3.9
2018-12-11T15:29:59.706Z,3.8
2018-12-11T15:30:49.450Z,3.8
2018-12-11T15:31:39.613Z,3.6
2018-12-11T15:32:29.911Z,3.5
2018-12-11T15:33:19.911Z,3.4
2018-12-11T15:34:09.688Z,3.3
2018-12-11T15:35:00.075Z,3.2
2018-12-11T15:35:49.852Z,3.1
2018-12-11T15:36:39.853Z,3.1
2018-12-11T15:37:29.920Z,2.9
2018-12-11T15:38:20.230Z,2.9
2018-12-11T15:39:10.288Z,2.8
2018-12-11T15:40:00.113Z,2.7
2018-12-11T15:40:50.427Z,2.6
2018-12-11T15:41:40.497Z,2.6
2018-12-11T15:42:30.540Z,2.5
2018-12-11T15:43:20.050Z,2.4
2018-12-11T15:44:10.392Z,2.3
2018-12-11T15:45:00.747Z,2.3
2018-12-11T15:45:50.503Z,2.2
2018-12-11T15:46:40.564Z,2.1
2018-12-11T15:47:30.905Z,2.1
2018-12-11T15:48:20.950Z,2
2018-12-11T15:49:11.166Z,1.9
2018-12-11T15:50:00.844Z,1.8
2018-12-11T15:50:50.845Z,1.8
2018-12-11T15:51:40.910Z,1.8
2018-12-11T15:52:31.219Z,1.8
2018-12-11T15:53:21.299Z,1.6
2018-12-11T15:54:11.610Z,1.6
2018-12-11T15:55:01.406Z,1.5
2018-12-11T15:55:51.472Z,1.4
2018-12-11T15:56:41.534Z,1.4
2018-12-11T15:57:31.606Z,1.4
2018-12-11T15:58:26.934Z,1.3
2018-12-11T15:59:11.713Z,1.3
2018-12-11T16:00:01.204Z,1.2
2018-12-11T16:00:51.816Z,1.1
2018-12-11T16:01:41.336Z,1.1
2018-12-11T16:02:31.718Z,1
2018-12-11T16:03:21.721Z,0.9
2018-12-11T16:04:12.058Z,0.9
2018-12-11T16:05:01.588Z,0.9
2018-12-11T16:05:51.898Z,0.8
2018-12-11T16:06:42.221Z,0.8
2018-12-11T16:07:32.019Z,0.7
2018-12-11T16:08:22.356Z,0.7
2018-12-11T16:09:12.381Z,0.6
2018-12-11T16:10:02.189Z,0.6
2018-12-11T16:10:52.230Z,0.5
2018-12-11T16:11:42.305Z,0.4
2018-12-11T16:12:32.646Z,0.4
2018-12-11T16:13:22.748Z,0.4
2018-12-11T16:14:13.012Z,0.3
2018-12-11T16:15:02.892Z,0.3
2018-12-11T16:15:52.860Z,0.2
2018-12-11T16:16:42.925Z,0.2
2018-12-11T16:17:32.713Z,0.1
2018-12-11T16:18:23.055Z,0.1
2018-12-11T16:19:12.551Z,0
2018-12-11T16:20:02.905Z,0
2018-12-11T16:20:53.017Z,-0.1
2018-12-11T16:21:42.997Z,-0.1
2018-12-11T16:22:33.054Z,-0.1
2018-12-11T16:23:23.397Z,-0.2
2018-12-11T16:24:13.466Z,-0.3
2018-12-11T16:25:03.524Z,-0.3
2018-12-11T16:25:53.068Z,-0.3
2018-12-11T16:26:43.630Z,-0.4
2018-12-11T16:27:33.677Z,-0.4
2018-12-11T16:28:23.749Z,-0.4
2018-12-11T16:29:13.798Z,-0.4
2018-12-11T16:30:03.329Z,-0.5
2018-12-11T16:30:54.035Z,-0.6
2018-12-11T16:31:43.982Z,-0.6
2018-12-11T16:32:34.039Z,-0.6
2018-12-11T16:33:24.074Z,-0.7
2018-12-11T16:34:13.402Z,-0.7
2018-12-11T16:35:03.734Z,-0.8
2018-12-11T16:35:53.787Z,-0.8
2018-12-11T16:36:44.329Z,-0.8
2018-12-11T16:37:33.919Z,-0.8
2018-12-11T16:38:24.437Z,-0.9
2018-12-11T16:41:44.719Z,-1
2018-12-11T16:42:34.730Z,-1
2018-12-11T16:43:24.239Z,-1.1
2018-12-11T16:44:14.571Z,-1.1
2018-12-11T16:45:04.914Z,-1.1
2018-12-11T16:45:54.961Z,-1.1
2018-12-11T16:46:45.026Z,-1.1
2018-12-11T16:47:35.084Z,-1.2
2018-12-11T16:48:25.133Z,-1.2
2018-12-11T16:49:14.931Z,-1.2
2018-12-11T16:50:05.273Z,-1.3
2018-12-11T16:50:55.041Z,-1.3
2018-12-11T16:51:45.378Z,-1.3
2018-12-11T16:52:35.433Z,-1.3
2018-12-11T16:53:25.497Z,-1.3
2018-12-11T16:54:15.546Z,-1.3
2018-12-11T16:55:05.608Z,-1.3
2018-12-11T16:55:55.629Z,-1.4
2018-12-11T16:56:45.163Z,-1.3
2018-12-11T16:57:35.809Z,-1.4
2018-12-11T16:58:25.833Z,-1.4
2018-12-11T16:59:15.621Z,-1.4
2018-12-11T17:00:05.398Z,-1.4
2018-12-11T17:00:56.010Z,-1.4
2018-12-11T17:01:46.066Z,-1.4
2018-12-11T17:02:36.128Z,-1.4
2018-12-11T17:03:25.893Z,-1.4
2018-12-11T17:04:16.238Z,-1.4
2018-12-11T17:05:06.290Z,-1.4
2018-12-11T17:05:56.128Z,-1.4
2018-12-11T17:06:46.143Z,-1.4
2018-12-11T17:07:36.490Z,-1.4
2018-12-11T17:08:26.530Z,-1.4
2018-12-11T17:09:16.326Z,-1.4
2018-12-11T17:10:06.661Z,-1.4
2018-12-11T17:10:57.669Z,-1.4
2018-12-11T17:11:46.490Z,-1.4
2018-12-11T17:12:36.825Z,-1.4
2018-12-11T17:13:27.205Z,-1.4
2018-12-11T17:14:16.663Z,-1.4
2018-12-11T17:15:06.445Z,-1.4
2018-12-11T17:15:56.774Z,-1.4
2018-12-11T17:16:47.105Z,-1.4
2018-12-11T17:17:36.907Z,-1.4
2018-12-11T17:18:27.225Z,-1.5
2018-12-11T17:19:17.003Z,-1.5
2018-12-11T17:20:07.080Z,-1.5
2018-12-11T17:20:57.403Z,-1.5
2018-12-11T17:21:49.623Z,-1.5
2018-12-11T17:22:37.263Z,-1.5
2018-12-11T17:23:27.287Z,-1.5
2018-12-11T17:24:17.062Z,-1.5
2018-12-11T17:25:07.722Z,-1.5
2018-12-11T17:25:57.733Z,-1.5
2018-12-11T17:26:49.020Z,-1.5
2018-12-11T17:27:37.880Z,-1.5
2018-12-11T17:28:27.920Z,-1.5
2018-12-11T17:29:24.670Z,-1.5
2018-12-11T17:30:08.040Z,-1.5
2018-12-11T17:30:57.837Z,-1.6
2018-12-11T17:31:48.165Z,-1.6
2018-12-11T17:32:38.254Z,-1.6
2018-12-11T17:33:28.319Z,-1.6
2018-12-11T17:34:18.340Z,-1.6
2018-12-11T17:35:08.387Z,-1.6
2018-12-11T17:35:58.445Z,-1.6
2018-12-11T17:36:48.497Z,-1.6
2018-12-11T17:37:38.553Z,-1.6
2018-12-11T17:38:28.609Z,-1.6
2018-12-11T17:39:18.664Z,-1.6
2018-12-11T17:40:08.454Z,-1.6
2018-12-11T17:40:58.518Z,-1.6
2018-12-11T17:41:48.899Z,-1.6
2018-12-11T17:42:39.141Z,-1.6
2018-12-11T17:43:29.010Z,-1.6
2018-12-11T17:44:19.277Z,-1.6
2018-12-11T17:45:09.079Z,-1.6
2018-12-11T17:45:59.136Z,-1.6
2018-12-11T17:46:49.196Z,-1.6
2018-12-11T17:47:39.250Z,-1.6
2018-12-11T17:48:29.356Z,-1.6
2018-12-11T17:49:19.350Z,-1.6
2018-12-11T17:50:09.160Z,-1.7
2018-12-11T17:50:59.532Z,-1.7
2018-12-11T17:51:48.781Z,-1.7
2018-12-11T17:52:40.677Z,-1.7
2018-12-11T17:53:28.627Z,-1.7
2018-12-11T17:54:19.232Z,-1.7
2018-12-11T17:55:09.287Z,-1.7
2018-12-11T17:55:59.343Z,-1.7
2018-12-11T17:56:49.411Z,-1.8
2018-12-11T17:57:39.496Z,-1.7
2018-12-11T17:58:29.565Z,-1.8
2018-12-11T17:59:19.581Z,-1.8
2018-12-11T18:00:09.629Z,-1.8
2018-12-11T18:00:59.681Z,-1.8
2018-12-11T18:01:49.473Z,-1.8
2018-12-11T18:02:39.810Z,-1.8
2018-12-11T18:03:29.858Z,-1.8
2018-12-11T18:04:19.918Z,-1.8
2018-12-11T18:05:10.177Z,-1.8
2018-12-11T18:23:48.132Z,-1.9
2018-12-11T18:24:38.134Z,-1.9
2018-12-11T18:25:28.244Z,-1.9
2018-12-11T18:26:18.262Z,-1.9
2018-12-11T18:27:08.291Z,-1.9
2018-12-11T18:27:58.371Z,-1.9
2018-12-11T18:28:48.467Z,-1.9
2018-12-11T18:29:38.476Z,-2
2018-12-11T18:30:28.239Z,-1.9
2018-12-11T18:31:18.349Z,-2
2018-12-11T18:32:08.632Z,-2
2018-12-11T18:32:58.699Z,-2
2018-12-11T18:33:48.746Z,-2
2018-12-11T18:34:38.524Z,-2
2018-12-11T18:35:28.870Z,-2
2018-12-11T18:36:18.641Z,-2
2018-12-11T18:37:08.981Z,-2
2018-12-11T18:37:59.034Z,-2.1
2018-12-11T18:38:48.816Z,-2.1
2018-12-11T18:39:39.407Z,-2.1
2018-12-11T18:40:29.506Z,-2.1
2018-12-11T18:41:19.343Z,-2.1
2018-12-11T18:42:09.337Z,-2.1
2018-12-11T18:42:59.114Z,-2.1
2018-12-11T18:43:49.451Z,-2.1
2018-12-11T18:44:39.497Z,-2.1
2018-12-11T18:45:29.536Z,-2.2
2018-12-11T18:46:19.341Z,-2.2
2018-12-11T18:47:09.671Z,-2.2
2018-12-11T18:47:59.730Z,-2.2
2018-12-11T18:48:49.829Z,-2.2
2018-12-11T18:49:39.856Z,-2.2
2018-12-11T18:50:30.162Z,-2.2
2018-12-11T18:51:19.966Z,-2.2
2018-12-11T18:52:10.023Z,-2.2
2018-12-11T18:53:00.078Z,-2.3
2018-12-11T18:53:50.133Z,-2.3
2018-12-11T18:54:40.205Z,-2.3
2018-12-11T18:55:29.971Z,-2.3
2018-12-11T18:56:20.309Z,-2.3
2018-12-11T18:57:10.360Z,-2.3
2018-12-11T18:58:00.485Z,-2.3
2018-12-11T18:58:50.211Z,-2.3
2018-12-11T18:59:40.543Z,-2.3
2018-12-11T19:00:30.388Z,-2.3
2018-12-11T19:01:20.656Z,-2.3
2018-12-11T19:02:10.443Z,-2.3
2018-12-11T19:03:00.831Z,-2.4
2018-12-11T19:03:51.880Z,-2.4
2018-12-11T19:04:40.332Z,-2.4
2018-12-11T19:05:30.923Z,-2.4
2018-12-11T19:06:20.730Z,-2.4
2018-12-11T19:07:11.059Z,-2.4
2018-12-11T19:08:00.843Z,-2.4
2018-12-11T19:08:50.902Z,-2.4
2018-12-11T19:09:41.246Z,-2.4
2018-12-11T19:10:31.074Z,-2.4
2018-12-11T19:11:21.112Z,-2.4
2018-12-11T19:12:11.437Z,-2.4
2018-12-11T19:13:00.901Z,-2.4
2018-12-11T19:13:51.525Z,-2.4
2018-12-11T19:14:41.356Z,-2.5
2018-12-11T19:15:31.359Z,-2.5
2018-12-11T19:16:21.427Z,-2.5
2018-12-11T19:17:11.767Z,-2.5
2018-12-11T19:18:01.536Z,-2.5
2018-12-11T19:18:51.922Z,-2.5
2018-12-11T19:19:41.941Z,-2.5
2018-12-11T19:20:32.008Z,-2.5
2018-12-11T19:21:22.031Z,-2.5
2018-12-11T19:22:12.108Z,-2.6
2018-12-11T19:23:01.887Z,-2.6
2018-12-11T19:23:51.941Z,-2.6
2018-12-11T19:24:42.278Z,-2.6
2018-12-11T19:25:32.063Z,-2.6
2018-12-11T19:26:23.543Z,-2.6
2018-12-11T19:27:12.163Z,-2.6
2018-12-11T19:28:02.490Z,-2.6
2018-12-11T19:28:52.528Z,-2.6
2018-12-11T19:29:42.635Z,-2.6
2018-12-11T19:30:32.706Z,-2.6
2018-12-11T19:31:22.469Z,-2.6
2018-12-11T19:32:12.816Z,-2.6
2018-12-11T19:33:02.583Z,-2.6
2018-12-11T19:33:52.630Z,-2.6
2018-12-11T19:34:42.685Z,-2.6
2018-12-11T19:35:35.650Z,-2.6
2018-12-11T19:36:23.101Z,-2.6
2018-12-11T19:37:12.584Z,-2.7
2018-12-11T19:38:02.930Z,-2.6
2018-12-11T19:38:52.974Z,-2.6
2018-12-11T19:39:43.031Z,-2.7
2018-12-11T19:40:33.086Z,-2.7
2018-12-11T19:41:23.417Z,-2.7
2018-12-11T19:42:13.266Z,-2.7
2018-12-11T19:43:09.517Z,-2.7
2018-12-11T19:43:53.599Z,-2.6
2018-12-11T19:44:43.371Z,-2.7
2018-12-11T19:45:33.711Z,-2.7
2018-12-11T19:46:24.077Z,-2.7
2018-12-11T19:47:13.560Z,-2.7
2018-12-11T19:48:03.886Z,-2.7
2018-12-11T19:48:53.944Z,-2.7
2018-12-11T19:49:43.991Z,-2.7
2018-12-11T19:50:34.061Z,-2.7
2018-12-11T19:51:24.078Z,-2.7
2018-12-11T19:52:13.616Z,-2.7
2018-12-11T19:53:03.674Z,-2.6
2018-12-11T19:53:54.547Z,-2.6
2018-12-11T19:54:44.075Z,-2.6
2018-12-11T19:55:34.415Z,-2.7
2018-12-11T19:56:24.721Z,-2.7
2018-12-11T19:57:14.245Z,-2.7
2018-12-11T19:58:04.027Z,-2.7
2018-12-11T19:58:54.345Z,-2.7
2018-12-11T19:59:44.415Z,-2.7
2018-12-11T20:00:34.997Z,-2.7
2018-12-11T20:01:24.802Z,-2.7
2018-12-11T20:02:14.595Z,-2.7
2018-12-11T20:03:10.445Z,-2.7
2018-12-11T20:03:54.720Z,-2.7
2018-12-11T20:04:45.032Z,-2.7
2018-12-11T20:05:35.097Z,-2.7
2018-12-11T20:06:24.102Z,-2.7
2018-12-11T20:07:15.211Z,-2.7
2018-12-11T20:08:04.979Z,-2.7
2018-12-11T20:08:54.777Z,-2.7
2018-12-11T20:09:45.382Z,-2.8
2018-12-11T20:10:35.444Z,-2.7
2018-12-11T20:11:25.231Z,-2.8
2018-12-11T20:12:15.287Z,-2.8
2018-12-11T20:13:05.407Z,-2.8
2018-12-11T20:13:55.671Z,-2.8
2018-12-11T20:14:45.446Z,-2.7
2018-12-11T20:15:36.123Z,-2.7
2018-12-11T20:16:25.577Z,-2.7
2018-12-11T20:17:15.901Z,-2.8
2018-12-11T20:18:05.956Z,-2.8
2018-12-11T20:18:56.019Z,-2.8
2018-12-11T20:19:45.796Z,-2.8
2018-12-11T20:20:35.911Z,-2.8
2018-12-11T20:21:25.958Z,-2.8
2018-12-11T20:22:15.951Z,-2.8
2018-12-11T20:23:06.298Z,-2.8
2018-12-11T20:23:56.091Z,-2.8
2018-12-11T20:24:46.408Z,-2.8
2018-12-11T20:25:36.470Z,-2.8
2018-12-11T20:26:26.563Z,-2.8
2018-12-11T20:27:16.308Z,-2.8
2018-12-11T20:28:06.375Z,-2.8
2018-12-11T20:28:56.418Z,-2.8
2018-12-11T20:29:47.020Z,-2.8
2018-12-11T20:30:36.533Z,-2.8
2018-12-11T20:31:26.865Z,-2.8
2018-12-11T20:32:16.950Z,-2.8
2018-12-11T20:33:06.988Z,-2.8
2018-12-11T20:33:56.767Z,-2.8
2018-12-11T20:34:46.554Z,-2.9
2018-12-11T20:35:36.605Z,-2.9
2018-12-11T20:36:26.112Z,-2.9
2018-12-11T20:37:17.234Z,-2.9
2018-12-11T20:38:06.779Z,-2.9
2018-12-11T20:38:57.104Z,-2.9
2018-12-11T20:39:46.902Z,-2.9
2018-12-11T20:40:37.546Z,-2.9
2018-12-11T20:41:27.556Z,-2.9
2018-12-11T20:42:17.329Z,-2.9
2018-12-11T20:43:07.662Z,-2.9
2018-12-11T20:43:57.721Z,-2.9
2018-12-11T20:44:47.836Z,-2.9
2018-12-11T20:45:37.847Z,-2.9
2018-12-11T20:46:27.086Z,-2.9
2018-12-11T20:47:17.955Z,-2.9
2018-12-11T20:48:07.738Z,-2.9
2018-12-11T20:48:57.791Z,-2.9
2018-12-11T20:49:47.854Z,-2.9
2018-12-11T20:50:37.923Z,-2.9
2018-12-11T20:51:27.963Z,-2.9
2018-12-11T20:52:18.029Z,-2.9
2018-12-11T20:53:08.663Z,-2.9
2018-12-11T20:53:58.161Z,-2.9
2018-12-11T20:54:48.531Z,-2.9
2018-12-11T20:55:38.538Z,-2.9
2018-12-11T20:56:28.363Z,-2.9
2018-12-11T20:57:18.693Z,-2.9
2018-12-11T20:58:08.428Z,-2.9
2018-12-11T20:58:58.493Z,-2.9
2018-12-11T20:59:48.536Z,-2.9
2018-12-11T21:00:38.593Z,-3
2018-12-11T21:01:28.928Z,-3
2018-12-11T21:02:19.249Z,-3
2018-12-11T21:03:09.100Z,-3
2018-12-11T21:03:59.106Z,-3
2018-12-11T21:04:48.892Z,-3
2018-12-11T21:05:39.225Z,-3.1
2018-12-11T21:06:29.277Z,-3.1
2018-12-11T21:07:19.097Z,-3.1
2018-12-11T21:08:09.387Z,-3.1
2018-12-11T21:08:59.250Z,-3.1
2018-12-11T21:09:49.499Z,-3.1
2018-12-11T21:10:39.569Z,-3.1